Time;durP1;ratioP1;P1;durP2;ratioP2;P2;SDS_P1;SDS_P2;PMS_P1;PMS_P2;Temp;Humidity;BMP_temperature;BMP_pressure;BME280_temperature;BME280_humidity;BME280_pressure;Samples;Min_cycle;Max_cycle;Signal;HPM_P1;HPM_P2
2022/12/13 00:01:58;;;;;;;;;;;;;;;1.15;100.00;100008.78;5012068;28;19936;-82
2022/12/13 00:04:24;;;;;;;;;;;;;;;1.19;100.00;100005.00;5016718;28;19958;-82
2022/12/13 00:06:52;;;;;;;;;;;;;;;1.02;100.00;99998.41;5007801;28;19933;-83
2022/12/13 00:09:18;;;;;;;;;;;;;;;1.23;100.00;99999.41;4997649;28;20021;-84
2022/12/13 00:11:44;;;;;;;;;;;;;;;1.08;100.00;99992.75;4980323;28;19926;-82
2022/12/13 00:14:10;;;;;;;;;;;;;;;1.04;100.00;99991.31;4996005;28;19929;-85
2022/12/13 00:16:35;;;;;;;;;;;;;;;1.15;100.00;99986.13;4979492;28;19922;-84
2022/12/13 00:19:01;;;;;;;;;;;;;;;1.11;100.00;99987.28;4999199;28;20291;-83
2022/12/13 00:21:27;;;;;;;;;;;;;;;1.23;100.00;99983.75;4983050;28;19952;-83
2022/12/13 00:23:53;;;;;;;;;;;;;;;1.27;100.00;99979.13;4982621;28;20324;-81
2022/12/13 00:26:20;;;;;;;;;;;;;;;1.21;100.00;99983.03;4999406;28;20012;-81
2022/12/13 00:28:48;;;;;;;;;;;;;;;1.07;100.00;99980.63;4999056;28;20386;-84
2022/12/13 00:31:14;;;;;;;;;;;;;;;1.08;100.00;99981.47;4999551;28;20004;-82
2022/12/13 00:33:39;;;;;;;;;;;;;;;1.10;100.00;99977.78;4999762;28;20343;-82
2022/12/13 00:36:05;;;;;;;;;;;;;;;1.06;100.00;99983.38;4999644;28;19925;-84
2022/12/13 00:38:30;;;;;;;;;;;;;;;0.93;100.00;99981.66;5000615;28;20312;-83
2022/12/13 00:40:56;;;;;;;;;;;;;;;0.85;100.00;99991.84;5000387;28;20357;-83
2022/12/13 00:43:21;;;;;;;;;;;;;;;0.84;100.00;99992.78;4965922;28;20012;-84
2022/12/13 00:45:46;;;;;;;;;;;;;;;0.84;100.00;99994.56;5000255;28;19929;-84
2022/12/13 00:48:12;;;;;;;;;;;;;;;0.87;100.00;99989.09;5000090;28;20001;-85
2022/12/13 00:50:40;;;;;;;;;;;;;;;1.05;100.00;99982.53;4998765;28;19922;-81
2022/12/13 00:53:07;;;;;;;;;;;;;;;1.00;100.00;99984.66;5008306;28;19928;-85
2022/12/13 00:55:33;;;;;;;;;;;;;;;1.34;100.00;99988.16;4989676;28;19926;-86
2022/12/13 00:57:58;;;;;;;;;;;;;;;1.09;100.00;99978.75;4999993;28;19926;-81
2022/12/13 01:00:24;;;;;;;;;;;;;;;1.14;100.00;99976.63;5001078;28;19968;-83
2022/12/13 01:02:51;;;;;;;;;;;;;;;1.07;100.00;99980.63;4983015;28;19957;-82
2022/12/13 01:05:16;;;;;;;;;;;;;;;1.36;100.00;99976.66;5000499;28;19972;-84
2022/12/13 01:07:43;;;;;;;;;;;;;;;1.30;100.00;99987.56;4998298;28;19922;-84
2022/12/13 01:10:10;;;;;;;;;;;;;;;1.17;100.00;99986.81;4999569;28;19922;-83
2022/12/13 01:12:35;;;;;;;;;;;;;;;1.19;100.00;99984.09;4999243;28;20013;-83
2022/12/13 01:15:01;;;;;;;;;;;;;;;1.27;100.00;99993.00;4997305;28;19965;-81
2022/12/13 01:17:26;;;;;;;;;;;;;;;1.17;100.00;99986.81;4999552;28;19929;-85
2022/12/13 01:19:52;;;;;;;;;;;;;;;1.19;100.00;99990.16;4998123;28;20040;-84
2022/12/13 01:22:17;;;;;;;;;;;;;;;1.28;100.00;99984.25;4998508;28;19929;-85
2022/12/13 01:24:43;;;;;;;;;;;;;;;1.03;100.00;99980.03;4999373;28;19928;-83
2022/12/13 01:27:08;;;;;;;;;;;;;;;1.09;100.00;99977.91;4999971;28;19922;-83
2022/12/13 01:29:34;;;;;;;;;;;;;;;1.24;100.00;99977.59;4999375;28;19933;-82
2022/12/13 01:31:59;;;;;;;;;;;;;;;1.23;100.00;99994.19;4999360;28;19921;-81
2022/12/13 01:34:26;;;;;;;;;;;;;;;1.21;100.00;99992.66;4981680;28;19922;-85
2022/12/13 01:36:52;;;;;;;;;;;;;;;1.27;100.00;99987.78;4981161;28;19921;-83
2022/12/13 01:39:18;;;;;;;;;;;;;;;1.36;100.00;99984.47;5002397;28;19944;-81
2022/12/13 01:41:45;;;;;;;;;;;;;;;1.26;100.00;99986.13;4998063;28;19929;-82
2022/12/13 01:44:29;;;;;;;;;;;;;;;1.30;100.00;99986.72;4999250;28;19922;-83
2022/12/13 01:46:55;;;;;;;;;;;;;;;1.35;100.00;99995.88;4998904;28;20394;-82
2022/12/13 01:49:20;;;;;;;;;;;;;;;1.45;100.00;99999.47;4998564;28;19922;-84
2022/12/13 01:51:49;;;;;;;;;;;;;;;1.29;100.00;100006.78;4999539;28;20271;-83
2022/12/13 01:54:17;;;;;;;;;;;;;;;1.30;100.00;100005.81;4981369;28;20020;-85
2022/12/13 01:56:47;;;;;;;;;;;;;;;1.41;100.00;100003.25;4999217;28;20008;-83
2022/12/13 01:59:15;;;;;;;;;;;;;;;1.65;100.00;99992.72;4997805;28;19918;-84
2022/12/13 02:01:46;;;;;;;;;;;;;;;1.80;100.00;99991.50;4999005;28;19941;-83
2022/12/13 02:04:12;;;;;;;;;;;;;;;1.73;100.00;99994.69;4999004;28;19961;-84
2022/12/13 02:06:42;;;;;;;;;;;;;;;1.55;100.00;99992.59;4998332;28;19925;-88
2022/12/13 02:09:09;;;;;;;;;;;;;;;1.45;100.00;99990.78;4997627;28;19921;-85
2022/12/13 02:11:35;;;;;;;;;;;;;;;1.45;100.00;99999.47;4998897;28;20009;-82
2022/12/13 02:14:01;;;;;;;;;;;;;;;1.47;100.00;99989.72;4998149;28;19928;-82
2022/12/13 02:16:53;;;;;;;;;;;;;;;1.56;100.00;99986.41;4999137;28;19922;-84
2022/12/13 02:19:21;;;;;;;;;;;;;;;1.62;100.00;99981.66;4961078;28;19925;-81
2022/12/13 02:22:06;;;;;;;;;;;;;;;1.69;100.00;99982.84;4996793;28;20375;-84
2022/12/13 02:25:07;;;;;;;;;;;;;;;1.84;100.00;99981.66;4980959;28;19965;-85
2022/12/13 02:27:46;;;;;;;;;;;;;;;2.04;100.00;99978.31;4900446;29;19931;-85
2022/12/13 02:30:23;;;;;;;;;;;;;;;1.67;100.00;99971.69;4986480;28;19922;-82
2022/12/13 02:32:48;;;;;;;;;;;;;;;1.56;100.00;99962.88;4997497;28;19972;-82
2022/12/13 02:35:26;;;;;;;;;;;;;;;1.31;100.00;99967.50;4996421;28;19921;-84
2022/12/13 02:38:11;;;;;;;;;;;;;;;1.42;100.00;99960.53;4996727;28;19922;-81
2022/12/13 02:40:39;;;;;;;;;;;;;;;1.55;100.00;99955.19;4996731;28;19926;-82
2022/12/13 02:43:07;;;;;;;;;;;;;;;1.51;100.00;99948.53;4996755;28;19932;-82
2022/12/13 02:45:40;;;;;;;;;;;;;;;1.35;100.00;99953.28;4995826;28;20276;-84
2022/12/13 02:48:06;;;;;;;;;;;;;;;1.35;100.00;99946.28;4997560;28;19922;-81
2022/12/13 02:50:33;;;;;;;;;;;;;;;1.49;100.00;99938.19;5008320;28;19922;-81
2022/12/13 02:52:59;;;;;;;;;;;;;;;1.78;100.00;99948.16;5013601;28;19926;-82
2022/12/13 02:55:25;;;;;;;;;;;;;;;1.65;100.00;99957.91;5018768;28;19953;-83
2022/12/13 02:57:50;;;;;;;;;;;;;;;1.63;100.00;99959.78;5009912;28;20009;-81
2022/12/13 03:00:20;;;;;;;;;;;;;;;1.49;100.00;99958.28;4997073;28;19918;-83
2022/12/13 03:02:45;;;;;;;;;;;;;;;1.41;100.00;99958.88;4980161;28;19922;-81
2022/12/13 03:08:04;;;;;;;;;;;;;;;1.40;100.00;99957.19;4996881;28;19922;-83
2022/12/13 03:10:36;;;;;;;;;;;;;;;1.62;100.00;99960.78;4996171;28;20478;-81
2022/12/13 03:15:57;;;;;;;;;;;;;;;1.42;100.00;99955.31;4996847;28;19997;-85
2022/12/13 03:18:23;;;;;;;;;;;;;;;1.31;100.00;99955.28;4996262;28;19921;-84
2022/12/13 03:20:55;;;;;;;;;;;;;;;1.35;100.00;99959.34;4978395;28;19926;-85
2022/12/13 03:23:20;;;;;;;;;;;;;;;1.30;100.00;99956.22;4996173;28;19921;-86
2022/12/13 03:25:48;;;;;;;;;;;;;;;1.35;100.00;99955.91;4996435;28;20303;-85
2022/12/13 03:28:14;;;;;;;;;;;;;;;1.34;100.00;99955.06;4995708;28;19964;-85
2022/12/13 03:30:40;;;;;;;;;;;;;;;1.43;100.00;99946.50;4995895;28;19933;-82
2022/12/13 03:33:05;;;;;;;;;;;;;;;1.35;100.00;99953.28;4998484;28;19922;-81
2022/12/13 03:35:31;;;;;;;;;;;;;;;1.39;100.00;99936.44;5014770;28;20370;-83
2022/12/13 03:37:56;;;;;;;;;;;;;;;1.41;100.00;99927.53;5016061;28;20021;-84
2022/12/13 03:40:22;;;;;;;;;;;;;;;1.59;100.00;99940.13;5013264;28;19921;-84
2022/12/13 03:42:50;;;;;;;;;;;;;;;1.55;100.00;99935.13;5015267;28;19928;-86
2022/12/13 03:45:17;;;;;;;;;;;;;;;1.68;100.00;99936.78;5015522;28;19960;-84
2022/12/13 03:47:43;;;;;;;;;;;;;;;1.80;100.00;99935.81;4997531;28;20332;-81
2022/12/13 03:50:08;;;;;;;;;;;;;;;1.72;100.00;99938.22;4996999;28;19921;-86
2022/12/13 03:52:33;;;;;;;;;;;;;;;1.71;100.00;99939.97;5013753;28;20440;-83
2022/12/13 03:54:59;;;;;;;;;;;;;;;1.61;100.00;99943.44;5015248;28;19932;-83
2022/12/13 03:57:24;;;;;;;;;;;;;;;1.67;100.00;99942.94;5015598;28;19921;-84
2022/12/13 03:59:49;;;;;;;;;;;;;;;1.78;100.00;99945.56;5014685;28;19920;-86
2022/12/13 04:02:15;;;;;;;;;;;;;;;1.65;100.00;99945.69;5014165;28;20385;-83
2022/12/13 04:04:40;;;;;;;;;;;;;;;1.64;100.00;99937.97;5013845;28;19922;-83
2022/12/13 04:07:06;;;;;;;;;;;;;;;1.61;100.00;99938.22;5014475;28;19921;-85
2022/12/13 04:09:31;;;;;;;;;;;;;;;1.77;100.00;99943.88;5014789;28;20012;-82
2022/12/13 04:14:41;;;;;;;;;;;;;;;1.46;100.00;99925.38;5014395;28;19962;-84
2022/12/13 04:17:07;;;;;;;;;;;;;;;1.49;100.00;99919.13;5015029;28;19964;-84
2022/12/13 04:19:32;;;;;;;;;;;;;;;1.58;100.00;99925.38;5015751;28;19928;-83
2022/12/13 04:21:59;;;;;;;;;;;;;;;1.73;100.00;99922.41;5015433;28;19932;-83
2022/12/13 04:24:24;;;;;;;;;;;;;;;1.76;100.00;99921.31;5015023;28;19921;-85
2022/12/13 04:26:50;;;;;;;;;;;;;;;1.62;100.00;99927.66;5014322;28;19925;-82
2022/12/13 04:29:15;;;;;;;;;;;;;;;1.71;100.00;99918.25;5014511;28;20017;-83
2022/12/13 04:31:41;;;;;;;;;;;;;;;1.54;100.00;99923.03;5014952;28;19921;-87
2022/12/13 04:34:06;;;;;;;;;;;;;;;1.40;100.00;99936.31;5014960;28;19921;-83
2022/12/13 04:36:32;;;;;;;;;;;;;;;1.60;100.00;99937.38;4998305;28;19921;-84
2022/12/13 04:38:57;;;;;;;;;;;;;;;1.74;100.00;99949.34;5000561;28;20345;-82
2022/12/13 04:41:22;;;;;;;;;;;;;;;1.78;100.00;99949.00;5017969;28;19940;-82
2022/12/13 04:43:52;;;;;;;;;;;;;;;1.77;100.00;99947.34;5006550;28;19926;-79
2022/12/13 04:46:18;;;;;;;;;;;;;;;1.55;100.00;99948.19;5026824;28;19980;-81
2022/12/13 04:48:44;;;;;;;;;;;;;;;1.51;100.00;99946.75;5009904;28;19948;-84
2022/12/13 04:51:09;;;;;;;;;;;;;;;1.68;100.00;99945.44;5021925;28;20314;-84
2022/12/13 04:53:35;;;;;;;;;;;;;;;1.88;100.00;99939.50;5016663;28;20287;-83
2022/12/13 04:56:02;;;;;;;;;;;;;;;2.06;100.00;99945.03;5016379;28;19975;-84
2022/12/13 04:58:27;;;;;;;;;;;;;;;1.96;100.00;99949.31;5015157;28;19922;-83
2022/12/13 05:00:52;;;;;;;;;;;;;;;1.81;100.00;99945.31;5015117;28;20390;-83
2022/12/13 05:03:18;;;;;;;;;;;;;;;1.69;100.00;99930.63;4982571;28;19955;-83
2022/12/13 05:05:43;;;;;;;;;;;;;;;1.82;100.00;99931.31;5019620;28;20279;-84
2022/12/13 05:08:08;;;;;;;;;;;;;;;1.69;100.00;99931.41;5007523;28;20000;-85
2022/12/13 05:10:34;;;;;;;;;;;;;;;1.85;100.00;99936.28;5025830;28;19921;-81
2022/12/13 05:12:59;;;;;;;;;;;;;;;2.11;100.00;99936.81;5027989;28;19933;-81
2022/12/13 05:15:25;;;;;;;;;;;;;;;2.11;100.00;99937.66;5029322;28;19921;-80
2022/12/13 05:17:50;;;;;;;;;;;;;;;2.02;100.00;99927.94;5026926;28;19928;-80
2022/12/13 05:20:16;;;;;;;;;;;;;;;1.83;100.00;99938.19;5022989;28;19922;-81
2022/12/13 05:22:42;;;;;;;;;;;;;;;1.82;100.00;99933.94;5026136;28;19981;-81
2022/12/13 05:25:07;;;;;;;;;;;;;;;1.77;100.00;99929.06;5028862;28;19967;-82
2022/12/13 05:27:32;;;;;;;;;;;;;;;2.01;100.00;99923.66;5026893;28;19921;-81
2022/12/13 05:29:58;;;;;;;;;;;;;;;2.09;100.00;99922.09;5026226;28;19937;-81
2022/12/13 05:32:23;;;;;;;;;;;;;;;2.10;100.00;99928.16;5011810;28;19929;-81
2022/12/13 05:34:49;;;;;;;;;;;;;;;2.06;100.00;99926.72;5027675;28;19925;-83
2022/12/13 05:37:15;;;;;;;;;;;;;;;2.03;100.00;99933.03;5029248;28;19926;-82
2022/12/13 05:39:41;;;;;;;;;;;;;;;1.79;100.00;99923.72;5029785;28;19929;-80
2022/12/13 05:42:06;;;;;;;;;;;;;;;2.02;100.00;99912.28;5030935;28;19909;-82
2022/12/13 05:44:31;;;;;;;;;;;;;;;1.94;100.00;99920.72;5039423;28;19914;-81
2022/12/13 05:46:57;;;;;;;;;;;;;;;1.79;100.00;99918.50;5038760;28;19932;-80
2022/12/13 05:49:23;;;;;;;;;;;;;;;2.01;100.00;99916.66;5031431;28;20017;-82
2022/12/13 05:51:48;;;;;;;;;;;;;;;1.93;100.00;99920.81;5023297;28;19989;-83
2022/12/13 05:54:13;;;;;;;;;;;;;;;1.89;100.00;99927.25;5027656;28;20328;-81
2022/12/13 05:56:39;;;;;;;;;;;;;;;1.95;100.00;99927.59;5010456;28;19933;-80
2022/12/13 05:59:04;;;;;;;;;;;;;;;2.18;100.00;99923.16;5015450;28;19921;-82
2022/12/13 06:01:30;;;;;;;;;;;;;;;2.05;100.00;99923.28;5028497;28;19928;-81
2022/12/13 06:03:55;;;;;;;;;;;;;;;1.90;100.00;99934.13;5029536;28;19921;-84
2022/12/13 06:06:21;;;;;;;;;;;;;;;1.89;100.00;99927.25;5023114;28;19926;-84
2022/12/13 06:08:46;;;;;;;;;;;;;;;1.86;100.00;99922.25;5016777;28;19944;-83
2022/12/13 06:11:11;;;;;;;;;;;;;;;1.96;100.00;99928.41;4997742;28;19929;-81
2022/12/13 06:13:37;;;;;;;;;;;;;;;1.93;100.00;99923.44;5014845;28;19917;-81
2022/12/13 06:16:04;;;;;;;;;;;;;;;1.81;100.00;99927.88;5010030;28;19987;-83
2022/12/13 06:18:31;;;;;;;;;;;;;;;1.84;100.00;99924.16;5012117;28;20461;-81
2022/12/13 06:20:58;;;;;;;;;;;;;;;1.91;100.00;99920.13;5008208;28;19936;-84
2022/12/13 06:23:23;;;;;;;;;;;;;;;1.97;100.00;99930.91;5017941;28;20384;-85
2022/12/13 06:25:48;;;;;;;;;;;;;;;1.86;100.00;99933.53;5018221;28;19964;-85
2022/12/13 06:28:14;;;;;;;;;;;;;;;1.83;100.00;99944.22;5017160;28;19921;-82
2022/12/13 06:30:40;;;;;;;;;;;;;;;1.64;100.00;99935.34;5017960;28;19929;-82
2022/12/13 06:33:05;;;;;;;;;;;;;;;1.46;100.00;99946.28;5016102;28;20377;-81
2022/12/13 06:35:30;;;;;;;;;;;;;;;1.23;100.00;99944.59;5015429;28;19925;-82
2022/12/13 06:38:00;;;;;;;;;;;;;;;1.18;100.00;99951.13;4998385;28;20313;-81
2022/12/13 06:40:26;;;;;;;;;;;;;;;1.14;100.00;99950.53;5015351;28;19921;-81
2022/12/13 06:42:51;;;;;;;;;;;;;;;1.04;100.00;99944.34;5015563;28;20019;-80
2022/12/13 12:09:19;;;;;;;;;;;;;;;2.36;100.00;99979.16;5382488;22;20349;-86
2022/12/13 12:11:45;;;;;;;;;;;;;;;2.31;100.00;99973.50;5031402;28;20016;-85
2022/12/13 12:14:15;;;;;;;;;;;;;;;2.24;100.00;99976.72;5021107;28;19917;-81
2022/12/13 12:16:45;;;;;;;;;;;;;;;2.27;100.00;99969.47;5030077;28;20356;-82
2022/12/13 12:19:14;;;;;;;;;;;;;;;2.38;100.00;99964.22;5039930;28;19924;-81
2022/12/13 12:21:52;;;;;;;;;;;;;;;2.36;100.00;99953.03;5021938;28;19925;-83
2022/12/13 12:24:36;;;;;;;;;;;;;;;2.37;100.00;99949.47;5020163;28;20020;-81
2022/12/13 12:27:14;;;;;;;;;;;;;;;2.22;100.00;99949.88;5038141;28;19929;-85
2022/12/13 12:29:50;;;;;;;;;;;;;;;2.48;100.00;99951.22;5037993;28;19971;-81
2022/12/13 12:32:30;;;;;;;;;;;;;;;2.35;100.00;99946.16;5037267;28;19921;-80
2022/12/13 12:35:06;;;;;;;;;;;;;;;2.33;100.00;99939.38;5037214;28;19921;-81
2022/12/13 12:37:43;;;;;;;;;;;;;;;2.42;100.00;99947.28;5037553;28;19921;-80
2022/12/13 12:40:20;;;;;;;;;;;;;;;2.95;100.00;99949.94;5037400;28;19921;-80
2022/12/13 12:43:01;;;;;;;;;;;;;;;2.55;100.00;99947.16;5018738;28;20293;-81
2022/12/13 12:45:27;;;;;;;;;;;;;;;2.57;100.00;99945.22;5037093;28;19952;-81
2022/12/13 12:48:04;;;;;;;;;;;;;;;2.47;100.00;99953.00;5037070;28;20293;-81
2022/12/13 12:50:39;;;;;;;;;;;;;;;2.69;100.00;99972.16;5037180;28;20012;-81
2022/12/13 12:53:20;;;;;;;;;;;;;;;2.72;100.00;99969.31;5036826;28;19921;-85
2022/12/13 12:55:50;;;;;;;;;;;;;;;2.69;100.00;99966.91;5036579;28;19921;-80
2022/12/13 12:58:24;;;;;;;;;;;;;;;2.55;100.00;99979.34;5027438;28;19921;-82
2022/12/13 13:01:09;;;;;;;;;;;;;;;2.63;100.00;99973.50;5035950;28;19928;-83
2022/12/13 13:03:36;;;;;;;;;;;;;;;2.75;100.00;99979.53;5009295;28;19944;-81
2022/12/13 13:06:13;;;;;;;;;;;;;;;2.80;100.00;99980.81;5019593;28;20023;-84
2022/12/13 13:08:39;;;;;;;;;;;;;;;2.58;100.00;99973.88;5016477;28;19996;-82
2022/12/13 13:11:05;;;;;;;;;;;;;;;2.60;100.00;99971.13;4999492;28;19967;-84
2022/12/13 13:13:32;;;;;;;;;;;;;;;2.94;100.00;99963.97;5032476;28;20450;-82
2022/12/13 13:15:57;;;;;;;;;;;;;;;2.97;100.00;99963.72;5030426;28;19953;-85
2022/12/13 13:18:44;;;;;;;;;;;;;;;3.07;100.00;99965.44;5021654;28;19971;-80
2022/12/13 13:21:32;;;;;;;;;;;;;;;3.05;100.00;99956.88;5028028;28;19931;-82
2022/12/13 13:24:04;;;;;;;;;;;;;;;2.93;100.00;99951.81;5026245;28;20331;-83
2022/12/13 13:26:30;;;;;;;;;;;;;;;2.99;100.00;99940.84;4998393;28;19925;-84
2022/12/13 13:29:18;;;;;;;;;;;;;;;2.62;100.00;99939.63;5016381;28;19983;-83
2022/12/13 13:31:58;;;;;;;;;;;;;;;2.58;100.00;99929.41;5004066;28;20016;-81
2022/12/13 13:34:32;;;;;;;;;;;;;;;2.67;100.00;99919.16;5027782;28;19929;-83
2022/12/13 13:36:59;;;;;;;;;;;;;;;2.70;100.00;99918.88;5006098;28;21634;-82
2022/12/13 13:39:27;;;;;;;;;;;;;;;2.84;100.00;99913.34;5009301;28;20008;-83
2022/12/13 13:41:53;;;;;;;;;;;;;;;2.53;100.00;99923.72;5011960;28;20341;-81
2022/12/13 13:44:32;;;;;;;;;;;;;;;2.63;100.00;99915.09;5009890;28;19925;-83
2022/12/13 13:47:26;;;;;;;;;;;;;;;2.65;100.00;99910.59;5026135;28;19948;-81
2022/12/13 13:50:02;;;;;;;;;;;;;;;2.58;100.00;99931.19;5000014;28;19931;-83
2022/12/13 13:52:36;;;;;;;;;;;;;;;2.40;100.00;99938.75;5017348;28;19999;-85
2022/12/13 13:55:19;;;;;;;;;;;;;;;2.59;100.00;99938.06;5015796;28;19927;-82
2022/12/13 13:57:45;;;;;;;;;;;;;;;2.54;100.00;99930.63;5015422;28;20478;-81
2022/12/13 14:00:16;;;;;;;;;;;;;;;2.67;100.00;99929.59;5016908;28;19922;-85
2022/12/13 14:03:09;;;;;;;;;;;;;;;2.71;100.00;99936.25;5016851;28;20361;-85
2022/12/13 14:06:01;;;;;;;;;;;;;;;2.56;100.00;99949.63;5015974;28;20386;-83
2022/12/13 14:08:31;;;;;;;;;;;;;;;2.43;100.00;99945.50;5014278;28;19917;-83
2022/12/13 14:11:05;;;;;;;;;;;;;;;2.37;100.00;99944.22;4998555;28;19921;-84
2022/12/13 14:13:46;;;;;;;;;;;;;;;2.32;100.00;99935.91;5017130;28;19925;-83
2022/12/13 14:16:18;;;;;;;;;;;;;;;2.27;100.00;99937.25;5015438;28;19921;-85
2022/12/13 14:18:53;;;;;;;;;;;;;;;2.42;100.00;99926.38;5020905;28;20285;-84
2022/12/13 14:21:47;;;;;;;;;;;;;;;2.68;100.00;99918.19;5031649;28;19964;-82
2022/12/13 14:24:25;;;;;;;;;;;;;;;2.57;100.00;99924.31;4971130;28;19926;-83
2022/12/13 14:26:53;;;;;;;;;;;;;;;2.46;100.00;99930.41;5026774;28;19925;-83
2022/12/13 14:29:40;;;;;;;;;;;;;;;2.43;100.00;99938.50;5016776;28;20300;-83
2022/12/13 14:32:17;;;;;;;;;;;;;;;2.41;100.00;99935.19;5020116;28;19924;-87
2022/12/13 14:34:43;;;;;;;;;;;;;;;2.44;100.00;99945.41;4999061;28;19991;-84
2022/12/13 14:37:20;;;;;;;;;;;;;;;2.33;100.00;99953.28;5021070;28;19917;-84
2022/12/13 14:39:46;;;;;;;;;;;;;;;2.28;100.00;99950.22;5033835;28;19921;-84
2022/12/13 14:42:20;;;;;;;;;;;;;;;2.41;100.00;99945.66;5029263;28;19991;-84
2022/12/13 14:44:48;;;;;;;;;;;;;;;2.36;100.00;99942.56;5016562;28;20028;-83
2022/12/13 14:47:13;;;;;;;;;;;;;;;2.48;100.00;99944.22;5028709;28;20417;-85
2022/12/13 14:49:41;;;;;;;;;;;;;;;2.51;100.00;99946.56;5000794;28;19929;-82
2022/12/13 14:52:09;;;;;;;;;;;;;;;2.63;100.00;99944.72;5030658;28;20456;-85
2022/12/13 14:54:46;;;;;;;;;;;;;;;2.57;100.00;99956.53;5011275;28;20297;-83
2022/12/13 14:57:16;;;;;;;;;;;;;;;2.47;100.00;99954.78;5010766;28;19921;-83
2022/12/13 14:59:46;;;;;;;;;;;;;;;2.55;100.00;99955.81;5005712;28;19975;-86
2022/12/13 15:02:13;;;;;;;;;;;;;;;2.55;100.00;99953.19;5031774;28;19972;-86
2022/12/13 15:04:42;;;;;;;;;;;;;;;2.57;100.00;99964.38;5030780;28;19971;-85
2022/12/13 15:07:08;;;;;;;;;;;;;;;2.75;100.00;99958.59;5041334;28;19988;-84
2022/12/13 15:09:34;;;;;;;;;;;;;;;2.83;100.00;99953.53;4998017;28;19963;-85
2022/12/13 15:12:00;;;;;;;;;;;;;;;2.70;100.00;99958.13;5018486;28;19933;-84
2022/12/13 15:14:28;;;;;;;;;;;;;;;2.91;100.00;99938.06;5020496;28;19918;-84
2022/12/13 15:16:55;;;;;;;;;;;;;;;2.86;100.00;99951.50;5017263;28;19933;-84
2022/12/13 15:19:24;;;;;;;;;;;;;;;2.89;100.00;99958.25;5029478;28;19925;-85
2022/12/13 15:21:55;;;;;;;;;;;;;;;2.72;100.00;99943.16;4999119;28;20301;-81
2022/12/13 15:24:40;;;;;;;;;;;;;;;2.79;100.00;99978.28;5029901;28;19999;-82
2022/12/13 15:27:10;;;;;;;;;;;;;;;2.70;100.00;99961.56;5015260;28;20333;-82
2022/12/13 15:29:35;;;;;;;;;;;;;;;2.67;100.00;99950.53;4996496;28;19929;-85
2022/12/13 15:32:01;;;;;;;;;;;;;;;2.64;100.00;99937.72;5019605;28;20459;-86
2022/12/13 15:34:27;;;;;;;;;;;;;;;2.67;100.00;99929.59;5033895;28;19923;-88
2022/12/13 15:36:53;;;;;;;;;;;;;;;2.65;100.00;99939.38;5034096;28;19963;-83
2022/12/13 15:39:19;;;;;;;;;;;;;;;2.46;100.00;99927.78;5015890;28;20489;-86
2022/12/13 15:41:45;;;;;;;;;;;;;;;2.72;100.00;99928.25;5016247;28;20118;-86
2022/12/13 15:44:31;;;;;;;;;;;;;;;2.69;100.00;99932.91;5034097;28;20326;-84
2022/12/13 15:47:10;;;;;;;;;;;;;;;2.74;100.00;99942.06;5033527;28;20286;-84
2022/12/13 15:49:36;;;;;;;;;;;;;;;2.87;100.00;99947.09;5014810;28;19933;-84
2022/12/13 15:52:04;;;;;;;;;;;;;;;2.72;100.00;99951.00;5015605;28;20024;-84
2022/12/13 15:54:29;;;;;;;;;;;;;;;2.65;100.00;99955.06;5014316;28;19944;-85
2022/12/13 15:57:01;;;;;;;;;;;;;;;2.72;100.00;99948.38;5014187;28;20297;-84
2022/12/13 15:59:26;;;;;;;;;;;;;;;2.77;100.00;99940.97;5013976;28;19928;-84
2022/12/13 16:01:52;;;;;;;;;;;;;;;2.99;100.00;99946.06;4996251;28;19922;-84
2022/12/13 16:04:21;;;;;;;;;;;;;;;2.91;100.00;99940.66;5015015;28;19922;-85
2022/12/13 16:06:49;;;;;;;;;;;;;;;2.94;100.00;99946.47;5013904;28;19924;-86
2022/12/13 16:09:17;;;;;;;;;;;;;;;2.57;100.00;99960.91;5013442;28;20000;-84
2022/12/13 16:11:51;;;;;;;;;;;;;;;2.37;100.00;99959.94;5013158;28;19964;-83
2022/12/13 16:14:31;;;;;;;;;;;;;;;2.25;100.00;99958.31;5013754;28;20282;-82
2022/12/13 16:16:59;;;;;;;;;;;;;;;2.19;100.00;99960.59;4997529;28;19924;-82
2022/12/13 16:19:25;;;;;;;;;;;;;;;2.14;100.00;99955.72;5029837;28;19993;-83
2022/12/13 16:21:50;;;;;;;;;;;;;;;2.10;100.00;99946.44;5013237;28;19925;-86
2022/12/13 16:24:16;;;;;;;;;;;;;;;2.10;100.00;99946.44;5021496;28;19922;-82
2022/12/13 16:26:45;;;;;;;;;;;;;;;2.13;100.00;99953.22;5033213;28;19967;-84
2022/12/13 16:29:12;;;;;;;;;;;;;;;2.13;100.00;99951.44;5034309;28;19922;-83
2022/12/13 16:31:37;;;;;;;;;;;;;;;2.11;100.00;99953.34;5034158;28;19988;-83
2022/12/13 16:34:04;;;;;;;;;;;;;;;2.03;100.00;99955.72;5033773;28;19987;-81
2022/12/13 16:36:29;;;;;;;;;;;;;;;2.08;100.00;99948.38;5033667;28;19928;-82
2022/12/13 16:38:55;;;;;;;;;;;;;;;2.03;100.00;99937.44;5016071;28;19964;-83
2022/12/13 16:41:20;;;;;;;;;;;;;;;2.10;100.00;99938.59;5033657;28;20008;-81
2022/12/13 16:43:57;;;;;;;;;;;;;;;2.21;100.00;99946.44;5033932;28;19974;-81
2022/12/13 16:46:23;;;;;;;;;;;;;;;2.21;100.00;99949.03;5015747;28;20128;-83
2022/12/13 16:48:49;;;;;;;;;;;;;;;2.27;100.00;99940.69;5033510;28;19972;-80
2022/12/13 16:51:14;;;;;;;;;;;;;;;2.39;100.00;99938.88;5033840;28;19921;-83
2022/12/13 16:53:39;;;;;;;;;;;;;;;2.46;100.00;99951.31;5034095;28;19933;-83
2022/12/13 16:56:10;;;;;;;;;;;;;;;2.43;100.00;99950.75;5015822;28;20007;-84
2022/12/13 16:58:35;;;;;;;;;;;;;;;2.44;100.00;99948.03;5018096;28;19961;-82
2022/12/13 17:01:01;;;;;;;;;;;;;;;2.38;100.00;99932.84;5016593;28;19922;-81
2022/12/13 17:03:26;;;;;;;;;;;;;;;2.43;100.00;99930.66;5033449;28;19921;-81
2022/12/13 17:05:52;;;;;;;;;;;;;;;2.59;100.00;99927.59;5019430;28;19972;-81
2022/12/13 17:08:17;;;;;;;;;;;;;;;2.67;100.00;99919.16;5000232;28;19928;-82
2022/12/13 17:10:44;;;;;;;;;;;;;;;2.78;100.00;99926.94;5018777;28;19929;-82
2022/12/13 17:13:10;;;;;;;;;;;;;;;2.82;100.00;99923.94;5001659;28;19921;-81
2022/12/13 17:15:36;;;;;;;;;;;;;;;2.85;100.00;99917.63;5018683;28;19929;-83
2022/12/13 17:18:02;;;;;;;;;;;;;;;2.93;100.00;99923.03;5019486;28;19922;-84
2022/12/13 17:20:28;;;;;;;;;;;;;;;2.93;100.00;99915.19;5001120;28;20279;-81
2022/12/13 17:22:54;;;;;;;;;;;;;;;2.84;100.00;99910.72;5016931;28;19922;-82
2022/12/13 17:25:20;;;;;;;;;;;;;;;2.78;100.00;99917.31;5015184;28;20377;-82
2022/12/13 17:27:46;;;;;;;;;;;;;;;2.92;100.00;99916.13;5017261;28;19921;-81
2022/12/13 17:30:13;;;;;;;;;;;;;;;3.01;100.00;99918.00;5001234;28;19921;-81
2022/12/13 17:32:39;;;;;;;;;;;;;;;3.15;100.00;99925.50;5020788;28;19921;-85
2022/12/13 17:35:05;;;;;;;;;;;;;;;2.74;100.00;99926.38;5000676;28;19929;-82
2022/12/13 17:37:30;;;;;;;;;;;;;;;2.69;100.00;99932.91;5020545;28;19953;-83
2022/12/13 17:39:56;;;;;;;;;;;;;;;2.41;100.00;99929.97;5018911;28;20040;-83
2022/12/13 17:42:21;;;;;;;;;;;;;;;2.40;100.00;99933.53;4983849;28;19917;-84
2022/12/13 17:44:49;;;;;;;;;;;;;;;2.41;100.00;99943.03;5019034;28;19933;-85
2022/12/13 17:47:15;;;;;;;;;;;;;;;2.40;100.00;99943.97;5023184;28;19921;-84
2022/12/13 17:49:40;;;;;;;;;;;;;;;2.21;100.00;99935.13;5024751;28;19982;-84
2022/12/13 17:52:06;;;;;;;;;;;;;;;2.28;100.00;99942.38;5039004;28;19925;-86
2022/12/13 17:54:31;;;;;;;;;;;;;;;2.37;100.00;99928.53;5038492;28;20055;-83
2022/12/13 17:56:57;;;;;;;;;;;;;;;2.18;100.00;99933.59;5019445;28;20401;-84
2022/12/13 17:59:23;;;;;;;;;;;;;;;2.13;100.00;99933.13;5003870;28;19963;-82
2022/12/13 18:01:49;;;;;;;;;;;;;;;2.04;100.00;99939.09;5037613;28;19960;-84
2022/12/13 18:04:14;;;;;;;;;;;;;;;2.11;100.00;99934.22;5048999;28;19971;-86
2022/12/13 18:06:41;;;;;;;;;;;;;;;2.38;100.00;99935.44;5054358;28;19921;-82
2022/12/13 18:09:07;;;;;;;;;;;;;;;2.78;100.00;99929.56;5037726;28;19947;-87
2022/12/13 18:11:33;;;;;;;;;;;;;;;2.72;100.00;99930.06;5034987;28;19921;-81
2022/12/13 18:13:59;;;;;;;;;;;;;;;2.77;100.00;99933.13;5044809;28;19917;-84
2022/12/13 18:16:26;;;;;;;;;;;;;;;2.78;100.00;99929.56;5046631;28;19974;-85
2022/12/13 18:18:55;;;;;;;;;;;;;;;2.34;100.00;99931.41;5036303;28;19924;-83
2022/12/13 18:21:25;;;;;;;;;;;;;;;2.23;100.00;99934.06;5027918;28;19929;-88
2022/12/13 18:23:51;;;;;;;;;;;;;;;2.05;100.00;99938.97;5022460;28;20018;-84
2022/12/13 18:26:16;;;;;;;;;;;;;;;2.13;100.00;99932.28;5006430;28;19921;-86